aviador You're here:

LFMD Decoded Metar

CANNES in FRANCE
Report Time2017-08-19 20:00:00
UTC Time2017-08-19 20:26:54
Flight Rules mvfr MVFR
WindVRB at 03 kt
Visibility9999 m
Phenomena:N/A
Clouds:N/A
Expected CloudBase > 1,600 ft AGL from Temp-Dew spread
Ceiling1,000 ft
Temp24°C (ISA +9)
Dew Point20°C (78% RH)
QNH1012 hPa
Density Alt1,424 ft
Elevation30 ft
Report Wrong Elevation
Raw Report
METAR LFMD 192000Z AUTO VRB03KT CAVOK 24/20 Q1012 TEMPO BKN010=

Extra information for LFMD:More info

Metar Taf Metar & Taf Last 4 Metars F.Rules Stats Wind Profile Meteogram Temp Stats Airport Information Weather charts Add Link Nearby VenuesMetar ALERT Operation Metar Decoded Social comments